sensor_id;sensor_type;location;lat;lon;timestamp;pressure;altitude;pressure_sealevel;temperature
74533;BMP180;63012;51.096;-115.366;2023-06-14T00:01:14;85780.00;;;22.60
74533;BMP180;63012;51.096;-115.366;2023-06-14T00:03:41;85790.20;;;22.60
74533;BMP180;63012;51.096;-115.366;2023-06-14T00:06:09;85804.80;;;22.60
74533;BMP180;63012;51.096;-115.366;2023-06-14T00:08:35;85805.80;;;22.60
74533;BMP180;63012;51.096;-115.366;2023-06-14T00:11:03;85798.00;;;22.60
74533;BMP180;63012;51.096;-115.366;2023-06-14T00:13:30;85796.20;;;22.60
74533;BMP180;63012;51.096;-115.366;2023-06-14T00:15:57;85801.00;;;22.60
74533;BMP180;63012;51.096;-115.366;2023-06-14T00:18:24;85805.20;;;22.60
74533;BMP180;63012;51.096;-115.366;2023-06-14T00:20:52;85813.80;;;22.60
74533;BMP180;63012;51.096;-115.366;2023-06-14T00:23:20;85806.60;;;22.60
74533;BMP180;63012;51.096;-115.366;2023-06-14T00:25:47;85818.40;;;22.60
74533;BMP180;63012;51.096;-115.366;2023-06-14T00:28:14;85837.20;;;22.60
74533;BMP180;63012;51.096;-115.366;2023-06-14T00:30:42;85853.80;;;22.60
74533;BMP180;63012;51.096;-115.366;2023-06-14T00:33:10;85863.60;;;22.60
74533;BMP180;63012;51.096;-115.366;2023-06-14T00:35:37;85851.80;;;22.60
74533;BMP180;63012;51.096;-115.366;2023-06-14T00:38:04;85849.60;;;22.62
74533;BMP180;63012;51.096;-115.366;2023-06-14T00:40:31;85845.20;;;22.62
74533;BMP180;63012;51.096;-115.366;2023-06-14T00:42:58;85825.60;;;22.62
74533;BMP180;63012;51.096;-115.366;2023-06-14T00:45:25;85827.40;;;22.66
74533;BMP180;63012;51.096;-115.366;2023-06-14T00:47:53;85831.40;;;22.64
74533;BMP180;63012;51.096;-115.366;2023-06-14T00:50:22;85838.60;;;22.66
74533;BMP180;63012;51.096;-115.366;2023-06-14T00:52:50;85836.40;;;22.66
74533;BMP180;63012;51.096;-115.366;2023-06-14T00:55:17;85835.40;;;22.70
74533;BMP180;63012;51.096;-115.366;2023-06-14T00:57:45;85840.80;;;22.70
74533;BMP180;63012;51.096;-115.366;2023-06-14T01:00:13;85843.60;;;22.70
74533;BMP180;63012;51.096;-115.366;2023-06-14T01:02:41;85844.00;;;22.70
74533;BMP180;63012;51.096;-115.366;2023-06-14T01:05:09;85842.80;;;22.70
74533;BMP180;63012;51.096;-115.366;2023-06-14T01:10:47;85842.40;;;22.70
74533;BMP180;63012;51.096;-115.366;2023-06-14T01:13:33;85838.80;;;22.70
74533;BMP180;63012;51.096;-115.366;2023-06-14T01:16:02;85837.40;;;22.70
74533;BMP180;63012;51.096;-115.366;2023-06-14T01:18:29;85834.40;;;22.70
74533;BMP180;63012;51.096;-115.366;2023-06-14T01:20:56;85830.40;;;22.70
74533;BMP180;63012;51.096;-115.366;2023-06-14T01:23:24;85816.20;;;22.70
74533;BMP180;63012;51.096;-115.366;2023-06-14T01:25:51;85811.80;;;22.70
74533;BMP180;63012;51.096;-115.366;2023-06-14T01:28:22;85812.00;;;22.70
74533;BMP180;63012;51.096;-115.366;2023-06-14T01:30:54;85833.60;;;22.70
74533;BMP180;63012;51.096;-115.366;2023-06-14T01:33:24;85857.20;;;22.70
74533;BMP180;63012;51.096;-115.366;2023-06-14T01:35:55;85862.60;;;22.70
74533;BMP180;63012;51.096;-115.366;2023-06-14T01:38:27;85849.20;;;22.70
74533;BMP180;63012;51.096;-115.366;2023-06-14T01:40:58;85827.80;;;22.70
74533;BMP180;63012;51.096;-115.366;2023-06-14T01:43:30;85833.00;;;22.70
74533;BMP180;63012;51.096;-115.366;2023-06-14T01:45:57;85832.60;;;22.70
74533;BMP180;63012;51.096;-115.366;2023-06-14T01:48:25;85830.80;;;22.70
74533;BMP180;63012;51.096;-115.366;2023-06-14T01:50:53;85836.80;;;22.70
74533;BMP180;63012;51.096;-115.366;2023-06-14T01:53:20;85833.20;;;22.70
74533;BMP180;63012;51.096;-115.366;2023-06-14T01:55:47;85834.40;;;22.70
74533;BMP180;63012;51.096;-115.366;2023-06-14T01:58:16;85839.60;;;22.70
74533;BMP180;63012;51.096;-115.366;2023-06-14T02:00:43;85835.00;;;22.70
74533;BMP180;63012;51.096;-115.366;2023-06-14T02:03:11;85827.80;;;22.70
74533;BMP180;63012;51.096;-115.366;2023-06-14T02:05:38;85825.40;;;22.70
74533;BMP180;63012;51.096;-115.366;2023-06-14T02:08:07;85828.20;;;22.70
74533;BMP180;63012;51.096;-115.366;2023-06-14T02:10:34;85834.40;;;22.70
74533;BMP180;63012;51.096;-115.366;2023-06-14T02:13:01;85841.20;;;22.70
74533;BMP180;63012;51.096;-115.366;2023-06-14T02:15:28;85844.00;;;22.70
74533;BMP180;63012;51.096;-115.366;2023-06-14T02:18:02;85849.00;;;22.70
74533;BMP180;63012;51.096;-115.366;2023-06-14T02:20:29;85851.60;;;22.70
74533;BMP180;63012;51.096;-115.366;2023-06-14T02:22:57;85852.20;;;22.70
74533;BMP180;63012;51.096;-115.366;2023-06-14T02:25:25;85859.40;;;22.70
74533;BMP180;63012;51.096;-115.366;2023-06-14T02:27:54;85859.20;;;22.70
74533;BMP180;63012;51.096;-115.366;2023-06-14T02:30:22;85856.00;;;22.70
74533;BMP180;63012;51.096;-115.366;2023-06-14T02:32:49;85857.60;;;22.70
74533;BMP180;63012;51.096;-115.366;2023-06-14T02:35:17;85868.00;;;22.70
74533;BMP180;63012;51.096;-115.366;2023-06-14T02:37:45;85861.20;;;22.70
74533;BMP180;63012;51.096;-115.366;2023-06-14T02:40:12;85861.20;;;22.70
74533;BMP180;63012;51.096;-115.366;2023-06-14T02:42:39;85865.20;;;22.70
74533;BMP180;63012;51.096;-115.366;2023-06-14T02:45:07;85864.00;;;22.70
74533;BMP180;63012;51.096;-115.366;2023-06-14T02:47:34;85870.40;;;22.70
74533;BMP180;63012;51.096;-115.366;2023-06-14T02:50:02;85871.60;;;22.70
74533;BMP180;63012;51.096;-115.366;2023-06-14T02:52:29;85859.20;;;22.70
74533;BMP180;63012;51.096;-115.366;2023-06-14T02:54:56;85857.00;;;22.70
74533;BMP180;63012;51.096;-115.366;2023-06-14T02:57:23;85860.00;;;22.70
74533;BMP180;63012;51.096;-115.366;2023-06-14T02:59:51;85872.80;;;22.70
74533;BMP180;63012;51.096;-115.366;2023-06-14T03:02:18;85867.00;;;22.70
74533;BMP180;63012;51.096;-115.366;2023-06-14T03:04:45;85862.60;;;22.70
74533;BMP180;63012;51.096;-115.366;2023-06-14T03:07:13;85869.80;;;22.70
74533;BMP180;63012;51.096;-115.366;2023-06-14T03:09:46;85863.40;;;22.70
74533;BMP180;63012;51.096;-115.366;2023-06-14T03:12:13;85852.80;;;22.70
74533;BMP180;63012;51.096;-115.366;2023-06-14T03:14:41;85852.00;;;22.70
74533;BMP180;63012;51.096;-115.366;2023-06-14T03:17:08;85846.00;;;22.70
74533;BMP180;63012;51.096;-115.366;2023-06-14T03:19:36;85842.80;;;22.70
74533;BMP180;63012;51.096;-115.366;2023-06-14T03:22:04;85826.20;;;22.70
74533;BMP180;63012;51.096;-115.366;2023-06-14T03:24:31;85812.80;;;22.68
74533;BMP180;63012;51.096;-115.366;2023-06-14T03:27:03;85824.20;;;22.66
74533;BMP180;63012;51.096;-115.366;2023-06-14T03:29:31;85820.00;;;22.70
74533;BMP180;63012;51.096;-115.366;2023-06-14T03:32:02;85813.60;;;22.66
74533;BMP180;63012;51.096;-115.366;2023-06-14T03:34:30;85817.60;;;22.64
74533;BMP180;63012;51.096;-115.366;2023-06-14T03:36:57;85816.80;;;22.60
74533;BMP180;63012;51.096;-115.366;2023-06-14T03:39:25;85814.00;;;22.62
74533;BMP180;63012;51.096;-115.366;2023-06-14T03:41:52;85813.00;;;22.60
74533;BMP180;63012;51.096;-115.366;2023-06-14T03:44:19;85814.40;;;22.60
74533;BMP180;63012;51.096;-115.366;2023-06-14T03:46:46;85807.40;;;22.60
74533;BMP180;63012;51.096;-115.366;2023-06-14T03:49:14;85815.20;;;22.60
74533;BMP180;63012;51.096;-115.366;2023-06-14T03:51:43;85814.80;;;22.60
74533;BMP180;63012;51.096;-115.366;2023-06-14T03:54:10;85813.20;;;22.60
74533;BMP180;63012;51.096;-115.366;2023-06-14T03:56:37;85806.60;;;22.60
74533;BMP180;63012;51.096;-115.366;2023-06-14T03:59:04;85802.60;;;22.60
74533;BMP180;63012;51.096;-115.366;2023-06-14T04:01:31;85800.60;;;22.60
74533;BMP180;63012;51.096;-115.366;2023-06-14T04:04:00;85807.40;;;22.60
74533;BMP180;63012;51.096;-115.366;2023-06-14T04:06:27;85808.80;;;22.60
74533;BMP180;63012;51.096;-115.366;2023-06-14T04:08:59;85809.00;;;22.60
74533;BMP180;63012;51.096;-115.366;2023-06-14T04:11:30;85801.00;;;22.60
74533;BMP180;63012;51.096;-115.366;2023-06-14T04:13:58;85801.40;;;22.60
74533;BMP180;63012;51.096;-115.366;2023-06-14T04:16:26;85797.80;;;22.60
74533;BMP180;63012;51.096;-115.366;2023-06-14T04:18:54;85790.80;;;22.60
74533;BMP180;63012;51.096;-115.366;2023-06-14T04:21:21;85778.00;;;22.60
74533;BMP180;63012;51.096;-115.366;2023-06-14T04:23:50;85772.00;;;22.60
74533;BMP180;63012;51.096;-115.366;2023-06-14T04:26:19;85763.60;;;22.60
74533;BMP180;63012;51.096;-115.366;2023-06-14T04:28:47;85749.60;;;22.56
74533;BMP180;63012;51.096;-115.366;2023-06-14T04:31:16;85738.60;;;22.60
74533;BMP180;63012;51.096;-115.366;2023-06-14T04:33:43;85735.60;;;22.50
74533;BMP180;63012;51.096;-115.366;2023-06-14T04:36:13;85741.20;;;22.50
74533;BMP180;63012;51.096;-115.366;2023-06-14T04:38:40;85735.40;;;22.50
74533;BMP180;63012;51.096;-115.366;2023-06-14T04:41:10;85732.80;;;22.50
74533;BMP180;63012;51.096;-115.366;2023-06-14T04:43:38;85725.60;;;22.50
74533;BMP180;63012;51.096;-115.366;2023-06-14T04:46:06;85719.80;;;22.50
74533;BMP180;63012;51.096;-115.366;2023-06-14T04:48:41;85718.60;;;22.50
74533;BMP180;63012;51.096;-115.366;2023-06-14T04:51:09;85720.40;;;22.44
74533;BMP180;63012;51.096;-115.366;2023-06-14T04:53:36;85722.60;;;22.40
74533;BMP180;63012;51.096;-115.366;2023-06-14T04:56:04;85723.40;;;22.44
74533;BMP180;63012;51.096;-115.366;2023-06-14T04:58:31;85719.20;;;22.40
74533;BMP180;63012;51.096;-115.366;2023-06-14T05:00:58;85715.00;;;22.40
74533;BMP180;63012;51.096;-115.366;2023-06-14T05:03:29;85708.00;;;22.40
74533;BMP180;63012;51.096;-115.366;2023-06-14T05:05:57;85701.80;;;22.40
74533;BMP180;63012;51.096;-115.366;2023-06-14T05:08:24;85697.20;;;22.40
74533;BMP180;63012;51.096;-115.366;2023-06-14T05:10:51;85686.60;;;22.40
74533;BMP180;63012;51.096;-115.366;2023-06-14T05:13:19;85685.60;;;22.44
74533;BMP180;63012;51.096;-115.366;2023-06-14T05:15:46;85689.80;;;22.46
74533;BMP180;63012;51.096;-115.366;2023-06-14T05:18:14;85700.60;;;22.50
74533;BMP180;63012;51.096;-115.366;2023-06-14T05:20:41;85695.80;;;22.50
74533;BMP180;63012;51.096;-115.366;2023-06-14T05:23:09;85696.40;;;22.50
74533;BMP180;63012;51.096;-115.366;2023-06-14T05:25:43;85697.20;;;22.50
74533;BMP180;63012;51.096;-115.366;2023-06-14T05:28:10;85699.60;;;22.50
74533;BMP180;63012;51.096;-115.366;2023-06-14T05:30:40;85702.40;;;22.50
74533;BMP180;63012;51.096;-115.366;2023-06-14T05:33:08;85701.60;;;22.50
74533;BMP180;63012;51.096;-115.366;2023-06-14T05:35:34;85687.20;;;22.50
74533;BMP180;63012;51.096;-115.366;2023-06-14T05:38:02;85691.80;;;22.50
74533;BMP180;63012;51.096;-115.366;2023-06-14T05:40:29;85684.00;;;22.50
74533;BMP180;63012;51.096;-115.366;2023-06-14T05:42:56;85682.60;;;22.50
74533;BMP180;63012;51.096;-115.366;2023-06-14T05:45:23;85680.00;;;22.50
74533;BMP180;63012;51.096;-115.366;2023-06-14T05:47:51;85666.20;;;22.50
74533;BMP180;63012;51.096;-115.366;2023-06-14T05:50:18;85662.00;;;22.50
74533;BMP180;63012;51.096;-115.366;2023-06-14T05:52:46;85648.60;;;22.48
74533;BMP180;63012;51.096;-115.366;2023-06-14T05:55:13;85632.80;;;22.44
74533;BMP180;63012;51.096;-115.366;2023-06-14T05:57:40;85638.80;;;22.46
74533;BMP180;63012;51.096;-115.366;2023-06-14T06:00:09;85641.60;;;22.44
74533;BMP180;63012;51.096;-115.366;2023-06-14T06:02:44;85648.00;;;22.42
74533;BMP180;63012;51.096;-115.366;2023-06-14T06:05:12;85649.40;;;22.40
74533;BMP180;63012;51.096;-115.366;2023-06-14T06:07:39;85650.60;;;22.40
74533;BMP180;63012;51.096;-115.366;2023-06-14T06:10:07;85658.60;;;22.40
74533;BMP180;63012;51.096;-115.366;2023-06-14T06:12:34;85652.80;;;22.40
74533;BMP180;63012;51.096;-115.366;2023-06-14T06:15:02;85655.20;;;22.40
74533;BMP180;63012;51.096;-115.366;2023-06-14T06:17:30;85664.40;;;22.40
74533;BMP180;63012;51.096;-115.366;2023-06-14T06:19:57;85670.60;;;22.40
74533;BMP180;63012;51.096;-115.366;2023-06-14T06:22:24;85665.80;;;22.40
74533;BMP180;63012;51.096;-115.366;2023-06-14T06:24:51;85657.40;;;22.40
74533;BMP180;63012;51.096;-115.366;2023-06-14T06:27:18;85657.80;;;22.40
74533;BMP180;63012;51.096;-115.366;2023-06-14T06:29:45;85658.20;;;22.40
74533;BMP180;63012;51.096;-115.366;2023-06-14T06:32:12;85659.60;;;22.40
74533;BMP180;63012;51.096;-115.366;2023-06-14T06:34:40;85656.60;;;22.40
74533;BMP180;63012;51.096;-115.366;2023-06-14T06:37:07;85660.20;;;22.40
74533;BMP180;63012;51.096;-115.366;2023-06-14T06:39:34;85658.00;;;22.40
74533;BMP180;63012;51.096;-115.366;2023-06-14T06:42:01;85653.40;;;22.40
74533;BMP180;63012;51.096;-115.366;2023-06-14T06:44:29;85647.40;;;22.40
74533;BMP180;63012;51.096;-115.366;2023-06-14T06:46:57;85648.40;;;22.40
74533;BMP180;63012;51.096;-115.366;2023-06-14T06:49:24;85641.80;;;22.32
74533;BMP180;63012;51.096;-115.366;2023-06-14T06:52:08;85637.40;;;22.30
74533;BMP180;63012;51.096;-115.366;2023-06-14T06:54:36;85629.60;;;22.30
74533;BMP180;63012;51.096;-115.366;2023-06-14T06:57:03;85632.80;;;22.30
74533;BMP180;63012;51.096;-115.366;2023-06-14T06:59:30;85631.40;;;22.30
74533;BMP180;63012;51.096;-115.366;2023-06-14T07:01:57;85623.00;;;22.30
74533;BMP180;63012;51.096;-115.366;2023-06-14T07:04:24;85621.00;;;22.30
74533;BMP180;63012;51.096;-115.366;2023-06-14T07:06:51;85614.40;;;22.30
74533;BMP180;63012;51.096;-115.366;2023-06-14T07:09:18;85616.60;;;22.30
74533;BMP180;63012;51.096;-115.366;2023-06-14T07:11:47;85635.40;;;22.30
74533;BMP180;63012;51.096;-115.366;2023-06-14T07:14:14;85636.40;;;22.30
74533;BMP180;63012;51.096;-115.366;2023-06-14T07:16:41;85628.20;;;22.30
74533;BMP180;63012;51.096;-115.366;2023-06-14T07:19:10;85624.40;;;22.22
74533;BMP180;63012;51.096;-115.366;2023-06-14T07:21:38;85616.40;;;22.24
74533;BMP180;63012;51.096;-115.366;2023-06-14T07:24:06;85610.80;;;22.22
74533;BMP180;63012;51.096;-115.366;2023-06-14T07:26:34;85600.20;;;22.22
74533;BMP180;63012;51.096;-115.366;2023-06-14T07:29:02;85599.20;;;22.24
74533;BMP180;63012;51.096;-115.366;2023-06-14T07:31:29;85597.80;;;22.22
74533;BMP180;63012;51.096;-115.366;2023-06-14T07:33:57;85593.80;;;22.20
74533;BMP180;63012;51.096;-115.366;2023-06-14T07:36:24;85587.20;;;22.20
74533;BMP180;63012;51.096;-115.366;2023-06-14T07:38:51;85592.00;;;22.20
74533;BMP180;63012;51.096;-115.366;2023-06-14T07:41:18;85592.20;;;22.20
74533;BMP180;63012;51.096;-115.366;2023-06-14T07:43:45;85593.20;;;22.20
74533;BMP180;63012;51.096;-115.366;2023-06-14T07:46:12;85601.80;;;22.20
74533;BMP180;63012;51.096;-115.366;2023-06-14T07:48:40;85605.80;;;22.20
74533;BMP180;63012;51.096;-115.366;2023-06-14T07:51:07;85602.20;;;22.20
74533;BMP180;63012;51.096;-115.366;2023-06-14T07:53:34;85593.40;;;22.20
74533;BMP180;63012;51.096;-115.366;2023-06-14T07:56:01;85592.80;;;22.20
74533;BMP180;63012;51.096;-115.366;2023-06-14T07:58:29;85582.20;;;22.20
74533;BMP180;63012;51.096;-115.366;2023-06-14T08:00:56;85581.60;;;22.20
74533;BMP180;63012;51.096;-115.366;2023-06-14T08:03:23;85576.80;;;22.20
74533;BMP180;63012;51.096;-115.366;2023-06-14T08:05:51;85562.20;;;22.20
74533;BMP180;63012;51.096;-115.366;2023-06-14T08:08:18;85560.40;;;22.20
74533;BMP180;63012;51.096;-115.366;2023-06-14T08:10:45;85566.60;;;22.20
74533;BMP180;63012;51.096;-115.366;2023-06-14T08:13:12;85570.20;;;22.20
74533;BMP180;63012;51.096;-115.366;2023-06-14T08:15:39;85576.00;;;22.20
74533;BMP180;63012;51.096;-115.366;2023-06-14T08:18:06;85581.60;;;22.20
74533;BMP180;63012;51.096;-115.366;2023-06-14T08:20:33;85581.60;;;22.20
74533;BMP180;63012;51.096;-115.366;2023-06-14T08:23:03;85571.00;;;22.16
74533;BMP180;63012;51.096;-115.366;2023-06-14T08:25:30;85569.60;;;22.12
74533;BMP180;63012;51.096;-115.366;2023-06-14T08:27:59;85565.80;;;22.10
74533;BMP180;63012;51.096;-115.366;2023-06-14T08:30:26;85566.00;;;22.10
74533;BMP180;63012;51.096;-115.366;2023-06-14T08:32:54;85568.60;;;22.10
74533;BMP180;63012;51.096;-115.366;2023-06-14T08:35:23;85567.00;;;22.10
74533;BMP180;63012;51.096;-115.366;2023-06-14T08:37:50;85565.00;;;22.10
74533;BMP180;63012;51.096;-115.366;2023-06-14T08:40:23;85557.20;;;22.10
74533;BMP180;63012;51.096;-115.366;2023-06-14T08:42:55;85557.60;;;22.10
74533;BMP180;63012;51.096;-115.366;2023-06-14T08:45:23;85553.80;;;22.10
74533;BMP180;63012;51.096;-115.366;2023-06-14T08:47:52;85550.20;;;22.08
74533;BMP180;63012;51.096;-115.366;2023-06-14T08:50:28;85544.20;;;22.06
74533;BMP180;63012;51.096;-115.366;2023-06-14T08:53:02;85543.80;;;22.00
74533;BMP180;63012;51.096;-115.366;2023-06-14T08:55:30;85542.80;;;22.00
74533;BMP180;63012;51.096;-115.366;2023-06-14T08:57:59;85535.20;;;22.00
74533;BMP180;63012;51.096;-115.366;2023-06-14T09:00:28;85537.00;;;22.00
74533;BMP180;63012;51.096;-115.366;2023-06-14T09:02:56;85533.40;;;22.00
74533;BMP180;63012;51.096;-115.366;2023-06-14T09:05:28;85528.60;;;22.00
74533;BMP180;63012;51.096;-115.366;2023-06-14T09:07:55;85529.80;;;22.00
74533;BMP180;63012;51.096;-115.366;2023-06-14T09:10:28;85532.20;;;22.00
74533;BMP180;63012;51.096;-115.366;2023-06-14T09:12:55;85528.60;;;22.00
74533;BMP180;63012;51.096;-115.366;2023-06-14T09:15:22;85533.60;;;22.00
74533;BMP180;63012;51.096;-115.366;2023-06-14T09:17:50;85535.00;;;22.00
74533;BMP180;63012;51.096;-115.366;2023-06-14T09:20:18;85537.20;;;21.98
74533;BMP180;63012;51.096;-115.366;2023-06-14T09:22:45;85538.80;;;21.92
74533;BMP180;63012;51.096;-115.366;2023-06-14T09:25:13;85546.20;;;21.90
74533;BMP180;63012;51.096;-115.366;2023-06-14T09:27:42;85549.00;;;21.90
74533;BMP180;63012;51.096;-115.366;2023-06-14T09:30:10;85549.00;;;21.90
74533;BMP180;63012;51.096;-115.366;2023-06-14T09:32:38;85550.20;;;21.90
74533;BMP180;63012;51.096;-115.366;2023-06-14T09:35:09;85548.60;;;21.90
74533;BMP180;63012;51.096;-115.366;2023-06-14T09:37:36;85542.60;;;21.90
74533;BMP180;63012;51.096;-115.366;2023-06-14T09:40:06;85544.20;;;21.90
74533;BMP180;63012;51.096;-115.366;2023-06-14T09:42:34;85548.60;;;21.88
74533;BMP180;63012;51.096;-115.366;2023-06-14T09:45:04;85545.80;;;21.82
74533;BMP180;63012;51.096;-115.366;2023-06-14T09:47:32;85544.80;;;21.80
74533;BMP180;63012;51.096;-115.366;2023-06-14T09:49:59;85547.20;;;21.80
74533;BMP180;63012;51.096;-115.366;2023-06-14T09:52:28;85540.80;;;21.80
74533;BMP180;63012;51.096;-115.366;2023-06-14T09:54:59;85529.80;;;21.80
74533;BMP180;63012;51.096;-115.366;2023-06-14T09:57:29;85531.20;;;21.80
74533;BMP180;63012;51.096;-115.366;2023-06-14T10:00:02;85533.00;;;21.80
74533;BMP180;63012;51.096;-115.366;2023-06-14T10:02:37;85528.60;;;21.80
74533;BMP180;63012;51.096;-115.366;2023-06-14T10:05:08;85524.60;;;21.80
74533;BMP180;63012;51.096;-115.366;2023-06-14T10:07:59;85516.00;;;21.80
74533;BMP180;63012;51.096;-115.366;2023-06-14T10:10:27;85508.20;;;21.80
74533;BMP180;63012;51.096;-115.366;2023-06-14T10:12:55;85511.20;;;21.80
74533;BMP180;63012;51.096;-115.366;2023-06-14T10:18:47;85501.00;;;21.80
74533;BMP180;63012;51.096;-115.366;2023-06-14T10:21:33;85500.00;;;21.76
74533;BMP180;63012;51.096;-115.366;2023-06-14T10:24:09;85494.60;;;21.70
74533;BMP180;63012;51.096;-115.366;2023-06-14T10:26:52;85491.80;;;21.70
74533;BMP180;63012;51.096;-115.366;2023-06-14T10:29:20;85493.20;;;21.70
74533;BMP180;63012;51.096;-115.366;2023-06-14T10:31:55;85489.80;;;21.70
74533;BMP180;63012;51.096;-115.366;2023-06-14T10:34:30;85478.00;;;21.70
74533;BMP180;63012;51.096;-115.366;2023-06-14T10:37:11;85478.20;;;21.70
74533;BMP180;63012;51.096;-115.366;2023-06-14T10:39:45;85479.20;;;21.70
74533;BMP180;63012;51.096;-115.366;2023-06-14T10:42:14;85475.80;;;21.70
74533;BMP180;63012;51.096;-115.366;2023-06-14T10:44:53;85483.00;;;21.70
74533;BMP180;63012;51.096;-115.366;2023-06-14T10:47:35;85475.00;;;21.70
74533;BMP180;63012;51.096;-115.366;2023-06-14T10:50:11;85476.80;;;21.64
74533;BMP180;63012;51.096;-115.366;2023-06-14T10:52:43;85482.20;;;21.64
74533;BMP180;63012;51.096;-115.366;2023-06-14T10:55:15;85480.40;;;21.60
74533;BMP180;63012;51.096;-115.366;2023-06-14T10:57:52;85482.40;;;21.60
74533;BMP180;63012;51.096;-115.366;2023-06-14T11:00:27;85473.60;;;21.60
74533;BMP180;63012;51.096;-115.366;2023-06-14T11:05:58;85479.80;;;21.60
74533;BMP180;63012;51.096;-115.366;2023-06-14T11:11:13;85467.60;;;21.60
74533;BMP180;63012;51.096;-115.366;2023-06-14T11:13:45;85467.20;;;21.60
74533;BMP180;63012;51.096;-115.366;2023-06-14T11:16:14;85467.40;;;21.60
74533;BMP180;63012;51.096;-115.366;2023-06-14T11:18:43;85473.80;;;21.54
74533;BMP180;63012;51.096;-115.366;2023-06-14T11:21:10;85475.80;;;21.50
74533;BMP180;63012;51.096;-115.366;2023-06-14T11:23:37;85480.80;;;21.50
74533;BMP180;63012;51.096;-115.366;2023-06-14T11:26:05;85477.40;;;21.50
74533;BMP180;63012;51.096;-115.366;2023-06-14T11:28:39;85475.40;;;21.50
74533;BMP180;63012;51.096;-115.366;2023-06-14T11:31:07;85473.60;;;21.50
74533;BMP180;63012;51.096;-115.366;2023-06-14T11:33:34;85464.80;;;21.50
74533;BMP180;63012;51.096;-115.366;2023-06-14T11:36:06;85459.00;;;21.50
74533;BMP180;63012;51.096;-115.366;2023-06-14T11:38:37;85464.80;;;21.50
74533;BMP180;63012;51.096;-115.366;2023-06-14T11:41:05;85462.80;;;21.50
74533;BMP180;63012;51.096;-115.366;2023-06-14T11:43:32;85455.40;;;21.50
74533;BMP180;63012;51.096;-115.366;2023-06-14T11:46:01;85464.40;;;21.44
74533;BMP180;63012;51.096;-115.366;2023-06-14T11:48:44;85474.40;;;21.40
74533;BMP180;63012;51.096;-115.366;2023-06-14T11:51:11;85481.80;;;21.40
74533;BMP180;63012;51.096;-115.366;2023-06-14T11:53:39;85479.00;;;21.40
74533;BMP180;63012;51.096;-115.366;2023-06-14T11:56:06;85472.80;;;21.40
74533;BMP180;63012;51.096;-115.366;2023-06-14T11:58:34;85475.80;;;21.40
74533;BMP180;63012;51.096;-115.366;2023-06-14T12:01:03;85471.00;;;21.40
74533;BMP180;63012;51.096;-115.366;2023-06-14T12:03:30;85463.00;;;21.40
74533;BMP180;63012;51.096;-115.366;2023-06-14T12:06:10;85459.80;;;21.40
74533;BMP180;63012;51.096;-115.366;2023-06-14T12:08:38;85461.20;;;21.40
74533;BMP180;63012;51.096;-115.366;2023-06-14T12:11:13;85464.80;;;21.40
74533;BMP180;63012;51.096;-115.366;2023-06-14T12:13:45;85461.20;;;21.40
74533;BMP180;63012;51.096;-115.366;2023-06-14T12:16:12;85453.00;;;21.40
74533;BMP180;63012;51.096;-115.366;2023-06-14T12:18:41;85461.40;;;21.40
74533;BMP180;63012;51.096;-115.366;2023-06-14T12:21:10;85455.60;;;21.40
74533;BMP180;63012;51.096;-115.366;2023-06-14T12:23:48;85451.80;;;21.40
74533;BMP180;63012;51.096;-115.366;2023-06-14T12:26:19;85452.20;;;21.40
74533;BMP180;63012;51.096;-115.366;2023-06-14T12:28:47;85445.80;;;21.40
74533;BMP180;63012;51.096;-115.366;2023-06-14T12:31:16;85446.80;;;21.40
74533;BMP180;63012;51.096;-115.366;2023-06-14T12:33:46;85446.40;;;21.34
74533;BMP180;63012;51.096;-115.366;2023-06-14T12:36:15;85447.20;;;21.30
74533;BMP180;63012;51.096;-115.366;2023-06-14T12:38:43;85448.20;;;21.30
74533;BMP180;63012;51.096;-115.366;2023-06-14T12:41:12;85452.20;;;21.30
74533;BMP180;63012;51.096;-115.366;2023-06-14T12:43:40;85450.80;;;21.30
74533;BMP180;63012;51.096;-115.366;2023-06-14T12:46:07;85454.80;;;21.30
74533;BMP180;63012;51.096;-115.366;2023-06-14T12:48:34;85451.80;;;21.30
74533;BMP180;63012;51.096;-115.366;2023-06-14T12:51:01;85460.00;;;21.30
74533;BMP180;63012;51.096;-115.366;2023-06-14T12:53:28;85465.60;;;21.30
74533;BMP180;63012;51.096;-115.366;2023-06-14T12:55:55;85480.00;;;21.30
74533;BMP180;63012;51.096;-115.366;2023-06-14T12:58:22;85484.00;;;21.30
74533;BMP180;63012;51.096;-115.366;2023-06-14T13:00:50;85486.40;;;21.30
74533;BMP180;63012;51.096;-115.366;2023-06-14T13:03:18;85487.20;;;21.30
74533;BMP180;63012;51.096;-115.366;2023-06-14T13:05:45;85488.60;;;21.24
74533;BMP180;63012;51.096;-115.366;2023-06-14T13:08:12;85493.80;;;21.22
74533;BMP180;63012;51.096;-115.366;2023-06-14T13:10:39;85500.00;;;21.20
74533;BMP180;63012;51.096;-115.366;2023-06-14T13:13:06;85502.60;;;21.20
74533;BMP180;63012;51.096;-115.366;2023-06-14T13:15:33;85501.80;;;21.20
74533;BMP180;63012;51.096;-115.366;2023-06-14T13:18:01;85500.80;;;21.20
74533;BMP180;63012;51.096;-115.366;2023-06-14T13:20:29;85509.80;;;21.20
74533;BMP180;63012;51.096;-115.366;2023-06-14T13:22:57;85517.00;;;21.20
74533;BMP180;63012;51.096;-115.366;2023-06-14T13:25:24;85524.40;;;21.20
74533;BMP180;63012;51.096;-115.366;2023-06-14T13:27:51;85530.80;;;21.20
74533;BMP180;63012;51.096;-115.366;2023-06-14T13:30:18;85532.20;;;21.20
74533;BMP180;63012;51.096;-115.366;2023-06-14T13:32:46;85535.80;;;21.12
74533;BMP180;63012;51.096;-115.366;2023-06-14T13:35:14;85542.20;;;21.10
74533;BMP180;63012;51.096;-115.366;2023-06-14T13:37:41;85549.80;;;21.10
74533;BMP180;63012;51.096;-115.366;2023-06-14T13:40:08;85553.60;;;21.10
74533;BMP180;63012;51.096;-115.366;2023-06-14T13:42:35;85552.60;;;21.10
74533;BMP180;63012;51.096;-115.366;2023-06-14T13:45:04;85560.40;;;21.10
74533;BMP180;63012;51.096;-115.366;2023-06-14T13:47:31;85568.60;;;21.10
74533;BMP180;63012;51.096;-115.366;2023-06-14T13:49:58;85576.20;;;21.10
74533;BMP180;63012;51.096;-115.366;2023-06-14T13:52:26;85574.60;;;21.10